Phillips, Illinois
Current Conditions -  °F | °C
As of 7:35 PM on Friday 28 Nov 2014 (Local Time) from KCUL Reporting Station
Clear Clear  
Wind Chill: 30°   Ceiling: Unl
Heat Index: 36°   Visibility: 10mi
Dew Point: 32°   Wind: 7mph
Humidity: 87%   Direction: 140°SE
Pressure: 30.05"   Gusts: NA
Location:  38.1681°N, 88.0517°W
Report Text: KCUL 290135Z AUTO 14006KT 10SM CLR 02/00 A3005 RMK AO2 T00200000
Loading
Personal Weather Stations






























Interactive Weather Map New forecast layout! Learn more

10-Day Weather Forecast

Advertisements
Track Severe Weather on mobile